Aérodrome :
LOGIN :

S'inscrire | Disclaimer

   EN    FR    IT 

 










Légende :    VFR   VFR Marginal   IFR   IFR Intensif   IFR Très Intensif
Visi : 
Plafond : 
>= 8 km
>= 3000ft
5 à 8 km
1000 à 3000 ft
1500m à 5 km
500 à 1000 ft
800 à 1500m
200 à 500 ft
< 800m
< 200 ft
Symboles :   Orages  Brouillard  Fortes neiges  Fortes précipitations  Vent > 20 kt
SIGMETs :   Divers  Orages  Givrage  Turbulence  Onde Orograph.  Cendres Volcan.







- Altitude de l'aérodrome : 74 ft
- Code IATA : EIN


EHEH - Eindhoven

DERNIER METAR :
  • 191025Z AUTO 27009KT 230V310 9999 FEW034 08/05 Q1018 BLU 26010KT CAVOK TEMPO FEW018 SCT020CB

METARs EXPIRÉS :
  • 190955Z AUTO 25007KT 220V300 9999 FEW033 07/05 Q1018 BLU 26010KT CAVOK TEMPO FEW018 SCT020CB
  • 190925Z AUTO 25008KT 210V320 9999 SCT079 07/04 Q1018 BLU 26010KT CAVOK TEMPO FEW018 SCT020CB
  • 190855Z AUTO 25008KT 220V290 9999 FEW200 06/04 Q1018 BLU 26010KT CAVOK TEMPO FEW018 SCT020CB
  • 190825Z AUTO 25008KT 220V280 9999 FEW240 05/03 Q1017 BLU 26010KT CAVOK TEMPO FEW018 SCT020CB
  • 190755Z AUTO 25007KT 210V280 9999 FEW034 04/03 Q1017 BLU 26010KT CAVOK TEMPO FEW018 SCT020CB

TAF TAF EHEH
Valide du 19 à 06h jusqu'au 20 à 12h UTC


190430Z 1906/2012 25006KT 9999 SCT030
PROB40
TEMPO 1906/1916 FEW018 SCT020CB BKN030
BECMG 1910/1913 29012G22KT
BECMG 1917/1920 25008KT
BECMG 1921/1924 BKN020
BECMG 2009/2012 20012KT FEW010 SCT015 BKN020
TEMPO 2009/2012 4500 RA SCT008 BKN012
Pas de NOTAMs connus pour ce terrain.



MET'MAP, la Météo Aéronautique d'un coup d'oeil ! - Copyright ORBIFLY Décembre 2007 - Disclaimer

ORBIFLY MET'MAP TEAM :

Programmation & Développement : Alexandra Zaïnal
Conception & Développement : Baudouin d'Aumeries
Co-Programmation & Développement : Marc-Olivier Méhu
Soutien technique & logistique : Manuel Goepfert

Contact : metmap@orbifly.com




SOURCES & CREDITS :

   NOAA